createdAt,value
2019-03-16T00:00:00.782Z,74.64
2019-03-16T00:02:34.289Z,74.52
2019-03-16T00:05:06.143Z,74.47
2019-03-16T00:07:37.526Z,74.64
2019-03-16T00:10:08.752Z,74.52
2019-03-16T00:12:40.219Z,75.03
2019-03-16T00:15:11.198Z,74.63
2019-03-16T00:17:42.210Z,74.73
2019-03-16T00:20:13.384Z,74.41
2019-03-16T00:22:44.531Z,74.75
2019-03-16T00:25:16.212Z,74.66
2019-03-16T00:27:47.457Z,74.45
2019-03-16T00:30:18.796Z,74.40
2019-03-16T00:32:50.335Z,74.52
2019-03-16T00:35:21.650Z,73.77
2019-03-16T00:37:52.756Z,74.29
2019-03-16T00:40:24.121Z,74.46
2019-03-16T00:42:55.157Z,74.07
2019-03-16T00:45:26.614Z,74.18
2019-03-16T00:47:58.753Z,74.08
2019-03-16T00:50:29.985Z,73.98
2019-03-16T00:53:00.965Z,73.44
2019-03-16T00:55:31.964Z,73.59
2019-03-16T00:58:04.224Z,72.90
2019-03-16T01:00:35.555Z,73.74
2019-03-16T01:03:07.027Z,73.51
2019-03-16T01:05:39.329Z,73.46
2019-03-16T01:08:11.011Z,72.88
2019-03-16T01:10:42.027Z,72.61
2019-03-16T01:13:13.007Z,72.76
2019-03-16T01:15:44.155Z,72.87
2019-03-16T01:18:16.295Z,73.01
2019-03-16T01:20:47.277Z,73.09
2019-03-16T01:23:18.639Z,73.41
2019-03-16T01:25:50.086Z,72.88
2019-03-16T01:28:21.478Z,73.17
2019-03-16T01:30:53.060Z,73.04
2019-03-16T01:33:24.586Z,72.63
2019-03-16T01:35:55.690Z,72.69
2019-03-16T01:38:27.236Z,72.86
2019-03-16T01:40:58.208Z,72.52
2019-03-16T01:43:29.466Z,72.30
2019-03-16T01:46:01.871Z,72.83
2019-03-16T01:48:32.951Z,72.97
2019-03-16T01:51:04.844Z,72.53
2019-03-16T01:53:36.141Z,72.53
2019-03-16T01:56:08.167Z,72.59
2019-03-16T01:58:39.653Z,72.53
2019-03-16T02:01:10.632Z,72.51
2019-03-16T02:03:41.921Z,72.92
2019-03-16T02:06:13.435Z,72.76
2019-03-16T02:08:44.431Z,72.79
2019-03-16T02:11:15.422Z,72.39
2019-03-16T02:13:46.693Z,72.53
2019-03-16T02:16:17.745Z,72.27
2019-03-16T02:18:48.842Z,72.03
2019-03-16T02:21:19.833Z,71.71
2019-03-16T02:23:50.819Z,71.99
2019-03-16T02:26:21.830Z,72.44
2019-03-16T02:28:53.124Z,72.49
2019-03-16T02:31:24.132Z,71.74
2019-03-16T02:33:55.139Z,72.33
2019-03-16T02:36:26.324Z,72.30
2019-03-16T02:38:57.633Z,71.75
2019-03-16T02:41:28.856Z,71.80
2019-03-16T02:43:59.863Z,71.95
2019-03-16T02:46:30.881Z,71.50
2019-03-16T02:49:01.861Z,71.42
2019-03-16T02:51:32.955Z,70.98
2019-03-16T02:54:04.635Z,70.83
2019-03-16T02:56:35.878Z,71.20
2019-03-16T02:59:08.020Z,71.87
2019-03-16T03:01:39.545Z,71.51
2019-03-16T03:04:11.037Z,71.82
2019-03-16T03:06:42.071Z,72.02
2019-03-16T03:09:13.134Z,72.24
2019-03-16T03:11:44.718Z,71.72
2019-03-16T03:14:16.050Z,71.20
2019-03-16T03:16:47.527Z,71.46
2019-03-16T03:19:18.525Z,71.74
2019-03-16T03:21:50.022Z,71.38
2019-03-16T03:24:21.009Z,71.06
2019-03-16T03:26:53.584Z,71.22
2019-03-16T03:29:27.993Z,71.14
2019-03-16T03:31:59.338Z,70.78
2019-03-16T03:34:30.884Z,70.85
2019-03-16T03:37:02.215Z,70.92
2019-03-16T03:39:33.779Z,70.40
2019-03-16T03:42:05.149Z,70.91
2019-03-16T03:44:36.460Z,71.22
2019-03-16T03:47:07.445Z,71.53
2019-03-16T03:49:38.479Z,71.87
2019-03-16T03:52:09.531Z,71.93
2019-03-16T03:54:40.615Z,72.18
2019-03-16T03:57:11.731Z,72.50
2019-03-16T03:59:43.250Z,72.40
2019-03-16T04:02:14.273Z,72.62
2019-03-16T04:04:46.257Z,72.00
2019-03-16T04:07:20.019Z,71.77
2019-03-16T04:09:50.290Z,71.64
2019-03-16T04:12:21.898Z,71.68
2019-03-16T04:14:52.982Z,70.94
2019-03-16T04:17:25.221Z,71.95
2019-03-16T04:19:56.599Z,71.40
2019-03-16T04:22:27.811Z,71.46
2019-03-16T04:24:59.762Z,71.64
2019-03-16T04:27:30.997Z,71.38
2019-03-16T04:30:01.999Z,70.82
2019-03-16T04:32:33.299Z,70.26
2019-03-16T04:35:05.674Z,70.75
2019-03-16T04:37:36.893Z,70.53
2019-03-16T04:40:07.963Z,70.14
2019-03-16T04:42:38.938Z,70.53
2019-03-16T04:45:10.324Z,70.22
2019-03-16T04:47:41.331Z,70.18
2019-03-16T04:50:12.800Z,70.05
2019-03-16T04:52:44.095Z,69.71
2019-03-16T04:55:15.162Z,69.86
2019-03-16T04:57:46.211Z,69.87
2019-03-16T05:00:17.437Z,70.21
2019-03-16T05:02:48.500Z,70.21
2019-03-16T05:05:20.123Z,70.05
2019-03-16T05:07:51.469Z,69.86
2019-03-16T05:10:23.567Z,69.35
2019-03-16T05:12:54.747Z,69.49
2019-03-16T05:15:26.303Z,69.26
2019-03-16T05:17:57.817Z,69.10
2019-03-16T05:20:29.742Z,69.03
2019-03-16T05:23:00.730Z,68.63
2019-03-16T05:25:31.846Z,68.97
2019-03-16T05:28:03.251Z,69.40
2019-03-16T05:30:35.092Z,69.36
2019-03-16T05:33:06.429Z,69.49
2019-03-16T05:35:37.956Z,69.59
2019-03-16T05:38:09.497Z,69.20
2019-03-16T05:40:40.475Z,69.88
2019-03-16T05:43:11.472Z,69.79
2019-03-16T05:45:42.986Z,69.71
2019-03-16T05:48:14.074Z,69.62
2019-03-16T05:50:45.145Z,69.05
2019-03-16T05:53:16.443Z,69.26
2019-03-16T05:55:47.505Z,69.05
2019-03-16T05:58:18.492Z,69.63
2019-03-16T06:00:49.776Z,69.58
2019-03-16T06:03:22.429Z,70.25
2019-03-16T06:05:53.759Z,70.14
2019-03-16T06:08:25.088Z,70.18
2019-03-16T06:10:56.105Z,70.23
2019-03-16T06:13:28.586Z,70.24
2019-03-16T06:15:59.938Z,70.79
2019-03-16T06:18:31.579Z,71.19
2019-03-16T06:21:02.653Z,70.85
2019-03-16T06:23:33.636Z,70.67
2019-03-16T06:26:05.471Z,70.79
2019-03-16T06:28:36.779Z,69.84
2019-03-16T06:31:07.833Z,70.41
2019-03-16T06:33:39.072Z,70.96
2019-03-16T06:36:10.712Z,70.46
2019-03-16T06:38:42.079Z,70.53
2019-03-16T06:41:13.641Z,70.23
2019-03-16T06:43:44.652Z,69.57
2019-03-16T06:46:15.985Z,68.91
2019-03-16T06:48:47.461Z,68.64
2019-03-16T06:51:18.613Z,69.13
2019-03-16T06:53:49.936Z,68.75
2019-03-16T06:56:21.022Z,69.17
2019-03-16T06:58:52.604Z,68.63
2019-03-16T07:01:24.321Z,68.38
2019-03-16T07:03:55.758Z,68.33
2019-03-16T07:06:27.119Z,68.81
2019-03-16T07:08:58.363Z,68.64
2019-03-16T07:11:29.816Z,68.83
2019-03-16T07:14:01.073Z,68.95
2019-03-16T07:16:32.125Z,68.73
2019-03-16T07:19:05.813Z,68.16
2019-03-16T07:21:37.058Z,67.92
2019-03-16T07:24:08.161Z,68.46
2019-03-16T07:26:39.460Z,68.97
2019-03-16T07:29:10.684Z,68.31
2019-03-16T07:31:42.023Z,68.55
2019-03-16T07:34:13.677Z,68.35
2019-03-16T07:36:44.956Z,68.33
2019-03-16T07:39:16.274Z,67.78
2019-03-16T07:41:47.923Z,67.77
2019-03-16T07:44:19.057Z,68.27
2019-03-16T07:46:50.166Z,67.72
2019-03-16T07:49:21.269Z,67.84
2019-03-16T07:51:52.908Z,68.01
2019-03-16T07:54:25.085Z,67.56
2019-03-16T07:56:57.062Z,67.55
2019-03-16T07:59:31.209Z,67.52
2019-03-16T08:02:03.118Z,68.12
2019-03-16T08:04:35.592Z,68.49
2019-03-16T08:07:06.622Z,69.03
2019-03-16T08:09:37.670Z,69.15
2019-03-16T08:12:08.726Z,69.31
2019-03-16T08:14:40.374Z,69.30
2019-03-16T08:17:11.418Z,69.25
2019-03-16T08:19:42.481Z,69.69
2019-03-16T08:22:16.672Z,69.68
2019-03-16T08:24:50.184Z,69.40
2019-03-16T08:27:21.454Z,68.93
2019-03-16T08:29:52.449Z,69.60
2019-03-16T08:32:25.555Z,69.46
2019-03-16T08:34:56.599Z,68.92
2019-03-16T08:37:29.756Z,68.54
2019-03-16T08:40:01.170Z,68.41
2019-03-16T08:42:32.249Z,68.40
2019-03-16T08:45:03.625Z,68.15
2019-03-16T08:47:35.860Z,68.53
2019-03-16T08:50:07.202Z,68.13
2019-03-16T08:52:38.539Z,68.69
2019-03-16T08:55:10.693Z,68.62
2019-03-16T08:57:42.127Z,69.06
2019-03-16T09:00:13.377Z,68.07
2019-03-16T09:02:44.705Z,68.28
2019-03-16T09:05:15.781Z,67.66
2019-03-16T09:07:47.079Z,67.88
2019-03-16T09:10:18.060Z,68.04
2019-03-16T09:12:54.871Z,67.04
2019-03-16T09:15:22.067Z,66.99
2019-03-16T09:17:53.048Z,67.42
2019-03-16T09:20:25.085Z,66.67
2019-03-16T09:22:56.357Z,67.36
2019-03-16T09:25:27.341Z,66.70
2019-03-16T09:27:58.716Z,66.46
2019-03-16T09:30:29.741Z,66.58
2019-03-16T09:33:00.666Z,65.57
2019-03-16T09:35:32.017Z,65.67
2019-03-16T09:38:05.272Z,66.38
2019-03-16T09:40:36.120Z,65.88
2019-03-16T09:43:07.120Z,65.98
2019-03-16T09:45:38.444Z,65.65
2019-03-16T09:48:10.311Z,65.51
2019-03-16T09:50:41.859Z,65.13
2019-03-16T09:53:14.282Z,64.80
2019-03-16T09:55:45.263Z,64.95
2019-03-16T09:58:16.934Z,65.28
2019-03-16T10:00:48.169Z,65.07
2019-03-16T10:03:20.162Z,65.36
2019-03-16T10:05:51.588Z,65.92
2019-03-16T10:08:22.827Z,65.60
2019-03-16T10:10:54.041Z,65.43
2019-03-16T10:13:25.326Z,65.53
2019-03-16T10:15:57.254Z,64.50
2019-03-16T10:18:28.564Z,65.05
2019-03-16T10:20:59.911Z,64.98
2019-03-16T10:23:31.199Z,65.27
2019-03-16T10:26:02.452Z,65.32
2019-03-16T10:28:43.274Z,65.49
2019-03-16T10:31:06.337Z,65.58
2019-03-16T10:33:38.086Z,65.75
2019-03-16T10:36:09.124Z,66.16
2019-03-16T10:38:40.606Z,66.39
2019-03-16T10:41:12.001Z,66.06
2019-03-16T10:43:43.245Z,66.32
2019-03-16T10:46:14.319Z,66.52
2019-03-16T10:48:45.296Z,66.12
2019-03-16T10:51:16.308Z,66.53
2019-03-16T10:53:47.877Z,66.61
2019-03-16T10:56:19.256Z,66.50
2019-03-16T10:58:56.563Z,65.49
2019-03-16T11:01:23.500Z,65.72
2019-03-16T11:03:54.548Z,65.73
2019-03-16T11:06:25.750Z,66.12
2019-03-16T11:08:56.859Z,65.83
2019-03-16T11:11:28.121Z,66.53
2019-03-16T11:13:59.561Z,67.08
2019-03-16T11:16:30.594Z,66.12
2019-03-16T11:19:01.571Z,64.64
2019-03-16T11:21:33.062Z,63.12
2019-03-16T11:24:06.194Z,62.74
2019-03-16T11:26:37.493Z,62.18
2019-03-16T11:29:09.504Z,61.53
2019-03-16T11:31:40.820Z,61.11
2019-03-16T11:34:12.349Z,61.26
2019-03-16T11:36:43.584Z,61.66
2019-03-16T11:39:14.637Z,60.82
2019-03-16T11:41:45.995Z,60.59
2019-03-16T11:44:17.345Z,60.94
2019-03-16T11:46:48.437Z,59.96
2019-03-16T11:49:19.842Z,59.78
2019-03-16T11:51:51.174Z,60.68
2019-03-16T11:54:22.982Z,58.97
2019-03-16T11:56:54.290Z,59.48
2019-03-16T11:59:25.952Z,59.82
2019-03-16T12:02:05.279Z,59.40
2019-03-16T12:04:29.879Z,57.18
2019-03-16T12:07:01.140Z,57.53
2019-03-16T12:09:32.881Z,56.92
2019-03-16T12:12:03.954Z,55.95
2019-03-16T12:14:36.181Z,56.68
2019-03-16T12:17:07.176Z,55.69
2019-03-16T12:19:38.391Z,55.65
2019-03-16T12:22:10.527Z,55.40
2019-03-16T12:24:41.500Z,55.08
2019-03-16T12:27:12.813Z,55.10
2019-03-16T12:29:44.386Z,55.63
2019-03-16T12:32:15.417Z,55.55
2019-03-16T12:35:06.399Z,55.16
2019-03-16T12:37:37.803Z,54.82
2019-03-16T12:40:09.225Z,53.64
2019-03-16T12:42:40.296Z,53.24
2019-03-16T12:45:14.158Z,52.76
2019-03-16T12:47:45.134Z,53.93
2019-03-16T12:50:16.373Z,54.63
2019-03-16T12:52:47.487Z,53.76
2019-03-16T12:55:18.461Z,53.37
2019-03-16T12:57:49.462Z,53.23
2019-03-16T13:00:20.609Z,53.67
2019-03-16T13:02:51.594Z,53.99
2019-03-16T13:05:24.997Z,52.65
2019-03-16T13:07:58.898Z,53.28
2019-03-16T13:10:29.866Z,52.41
2019-03-16T13:13:01.493Z,52.89
2019-03-16T13:15:32.824Z,53.18
2019-03-16T13:18:05.046Z,53.41
2019-03-16T13:20:36.651Z,52.42
2019-03-16T13:23:07.968Z,52.40
2019-03-16T13:25:39.379Z,52.54
2019-03-16T13:28:11.251Z,53.09
2019-03-16T13:30:42.551Z,53.71
2019-03-16T13:33:13.826Z,53.91
2019-03-16T13:35:45.273Z,53.45
2019-03-16T13:38:19.613Z,53.75
2019-03-16T13:40:51.268Z,54.51
2019-03-16T13:43:22.495Z,54.58
2019-03-16T13:45:54.022Z,53.42
2019-03-16T13:48:25.710Z,53.79
2019-03-16T13:50:57.031Z,53.41
2019-03-16T13:53:28.027Z,53.97
2019-03-16T13:55:59.590Z,53.64
2019-03-16T13:58:31.073Z,53.38
2019-03-16T14:01:03.747Z,53.54
2019-03-16T14:03:34.835Z,54.17
2019-03-16T14:06:06.552Z,54.00
2019-03-16T14:08:38.063Z,53.48
2019-03-16T14:11:10.391Z,53.51
2019-03-16T14:13:41.404Z,52.54
2019-03-16T14:16:12.665Z,52.52
2019-03-16T14:18:43.656Z,52.57
2019-03-16T14:21:14.637Z,52.30
2019-03-16T14:23:45.707Z,53.30
2019-03-16T14:26:16.977Z,52.24
2019-03-16T14:28:49.427Z,52.53
2019-03-16T14:31:20.636Z,53.06
2019-03-16T14:34:10.846Z,52.95
2019-03-16T14:36:42.624Z,53.53
2019-03-16T14:39:13.752Z,53.30
2019-03-16T14:41:44.824Z,53.14
2019-03-16T14:44:16.453Z,53.92
2019-03-16T14:46:47.795Z,54.19
2019-03-16T14:49:19.146Z,54.02
2019-03-16T14:51:50.728Z,53.02
2019-03-16T14:54:23.410Z,51.78
2019-03-16T14:56:55.566Z,52.53
2019-03-16T14:59:27.164Z,53.27
2019-03-16T15:01:58.610Z,53.66
2019-03-16T15:04:30.090Z,53.17
2019-03-16T15:07:01.860Z,53.60
2019-03-16T15:09:34.377Z,53.09
2019-03-16T15:12:05.802Z,52.85
2019-03-16T15:14:38.087Z,53.02
2019-03-16T15:17:09.186Z,53.75
2019-03-16T15:19:40.455Z,52.79
2019-03-16T15:22:12.410Z,53.44
2019-03-16T15:24:43.374Z,53.76
2019-03-16T15:27:15.880Z,53.33
2019-03-16T15:29:47.912Z,53.71
2019-03-16T15:32:19.361Z,53.21
2019-03-16T15:34:50.946Z,53.96
2019-03-16T15:37:23.154Z,53.33
2019-03-16T15:39:54.728Z,53.21
2019-03-16T15:42:25.695Z,53.21
2019-03-16T15:44:56.944Z,53.20
2019-03-16T15:47:30.008Z,53.14
2019-03-16T15:50:01.869Z,53.62
2019-03-16T15:52:37.316Z,53.57
2019-03-16T15:55:07.567Z,53.56
2019-03-16T15:57:42.192Z,53.80
2019-03-16T16:00:13.937Z,54.04
2019-03-16T16:02:44.993Z,52.96
2019-03-16T16:05:16.309Z,52.90
2019-03-16T16:07:47.414Z,53.10
2019-03-16T16:10:18.604Z,53.29
2019-03-16T16:12:50.023Z,53.42
2019-03-16T16:15:21.489Z,53.07
2019-03-16T16:17:52.996Z,52.98
2019-03-16T16:20:23.986Z,52.87
2019-03-16T16:22:54.972Z,53.77
2019-03-16T16:25:26.249Z,53.33
2019-03-16T16:27:57.500Z,53.79
2019-03-16T16:30:28.643Z,53.56
2019-03-16T16:32:59.925Z,53.49
2019-03-16T16:35:30.921Z,54.24
2019-03-16T16:38:02.127Z,54.09
2019-03-16T16:40:33.977Z,53.89
2019-03-16T16:43:05.688Z,54.34
2019-03-16T16:45:37.038Z,54.25
2019-03-16T16:48:08.593Z,54.70
2019-03-16T16:50:39.805Z,54.49
2019-03-16T16:53:11.357Z,54.20
2019-03-16T16:55:42.464Z,54.13
2019-03-16T16:58:13.939Z,54.61
2019-03-16T17:00:44.920Z,53.85
2019-03-16T17:03:16.085Z,53.11
2019-03-16T17:05:47.144Z,52.54
2019-03-16T17:08:18.415Z,53.37
2019-03-16T17:13:09.861Z,52.73
2019-03-16T17:15:41.243Z,53.08
2019-03-16T17:18:12.797Z,52.74
2019-03-16T17:20:44.166Z,53.45
2019-03-16T17:23:15.495Z,53.19
2019-03-16T17:25:46.857Z,53.13
2019-03-16T17:28:18.429Z,53.43
2019-03-16T17:30:49.562Z,53.17
2019-03-16T17:33:20.728Z,53.42
2019-03-16T17:35:51.809Z,53.04
2019-03-16T17:38:23.587Z,53.06
2019-03-16T17:40:54.934Z,53.24
2019-03-16T17:43:26.181Z,53.51
2019-03-16T17:45:57.260Z,53.16
2019-03-16T17:48:29.776Z,53.85
2019-03-16T17:51:00.965Z,53.69
2019-03-16T17:53:32.009Z,54.56
2019-03-16T17:56:04.200Z,54.20
2019-03-16T17:58:35.218Z,53.64
2019-03-16T18:01:06.843Z,53.57
2019-03-16T18:03:38.562Z,53.93
2019-03-16T18:06:10.212Z,53.62
2019-03-16T18:08:41.347Z,53.79
2019-03-16T18:11:12.476Z,53.58
2019-03-16T18:13:44.576Z,53.04
2019-03-16T18:16:15.691Z,53.33
2019-03-16T18:18:46.722Z,53.44
2019-03-16T18:21:18.756Z,53.05
2019-03-16T18:23:50.343Z,52.85
2019-03-16T18:26:21.693Z,52.74
2019-03-16T18:28:53.031Z,52.63
2019-03-16T18:31:24.189Z,53.77
2019-03-16T18:33:55.963Z,53.94
2019-03-16T18:36:27.821Z,53.78
2019-03-16T18:38:58.803Z,53.44
2019-03-16T18:41:29.877Z,53.23
2019-03-16T18:44:01.515Z,53.74
2019-03-16T18:46:32.585Z,53.60
2019-03-16T18:49:04.594Z,53.88
2019-03-16T18:51:35.567Z,53.78
2019-03-16T18:54:06.578Z,53.86
2019-03-16T18:56:38.093Z,54.20
2019-03-16T18:59:09.413Z,53.85
2019-03-16T19:01:41.359Z,53.33
2019-03-16T19:04:12.402Z,54.02
2019-03-16T19:06:44.118Z,53.92
2019-03-16T19:09:15.447Z,54.87
2019-03-16T19:11:46.737Z,54.17
2019-03-16T19:14:18.137Z,54.42
2019-03-16T19:16:49.178Z,54.29
2019-03-16T19:19:20.494Z,54.26
2019-03-16T19:21:51.545Z,54.43
2019-03-16T19:24:23.496Z,54.19
2019-03-16T19:26:54.844Z,54.76
2019-03-16T19:29:25.837Z,54.65
2019-03-16T19:31:56.816Z,54.15
2019-03-16T19:34:29.288Z,54.01
2019-03-16T19:37:00.281Z,54.26
2019-03-16T19:39:31.828Z,54.03
2019-03-16T19:42:02.798Z,54.06
2019-03-16T19:44:34.814Z,54.62
2019-03-16T19:47:15.673Z,54.53
2019-03-16T19:49:47.045Z,53.92
2019-03-16T19:52:18.338Z,54.56
2019-03-16T19:54:49.636Z,54.30
2019-03-16T19:57:20.959Z,54.24
2019-03-16T19:59:51.968Z,54.75
2019-03-16T20:02:23.933Z,55.05
2019-03-16T20:04:54.933Z,54.58
2019-03-16T20:07:26.266Z,54.65
2019-03-16T20:09:57.616Z,55.21
2019-03-16T20:12:29.202Z,55.16
2019-03-16T20:15:00.268Z,55.16
2019-03-16T20:17:31.301Z,55.04
2019-03-16T20:20:02.603Z,55.40
2019-03-16T20:22:34.616Z,55.63
2019-03-16T20:25:06.413Z,55.18
2019-03-16T20:27:37.640Z,55.64
2019-03-16T20:30:13.461Z,56.10
2019-03-16T20:33:02.434Z,55.57
2019-03-16T20:35:58.121Z,55.67
2019-03-16T20:39:09.201Z,55.72
2019-03-16T20:41:40.917Z,55.88
2019-03-16T20:44:12.172Z,55.93
2019-03-16T20:46:44.598Z,56.24
2019-03-16T20:49:16.112Z,55.78
2019-03-16T20:51:47.108Z,56.02
2019-03-16T20:54:18.210Z,55.35
2019-03-16T20:56:49.213Z,55.45
2019-03-16T20:59:20.521Z,55.20
2019-03-16T21:01:51.535Z,55.48
2019-03-16T21:04:23.099Z,55.89
2019-03-16T21:06:54.097Z,55.92
2019-03-16T21:09:25.076Z,56.21
2019-03-16T21:11:56.156Z,56.17
2019-03-16T21:14:27.849Z,56.20
2019-03-16T21:16:59.113Z,56.07
2019-03-16T21:19:30.414Z,56.14
2019-03-16T21:22:01.655Z,56.45
2019-03-16T21:24:32.646Z,56.27
2019-03-16T21:27:05.139Z,55.94
2019-03-16T21:29:38.957Z,56.11
2019-03-16T21:32:09.911Z,55.78
2019-03-16T21:34:41.170Z,55.44
2019-03-16T21:37:12.434Z,55.79
2019-03-16T21:39:43.417Z,55.73
2019-03-16T21:42:14.893Z,55.44
2019-03-16T21:44:46.687Z,55.10
2019-03-16T21:47:17.696Z,54.93
2019-03-16T21:49:49.281Z,54.86
2019-03-16T21:52:20.559Z,55.17
2019-03-16T21:54:51.594Z,54.77
2019-03-16T21:57:22.996Z,54.01
2019-03-16T21:59:54.084Z,54.14
2019-03-16T22:02:25.208Z,54.07
2019-03-16T22:04:56.492Z,53.86
2019-03-16T22:07:27.555Z,53.58
2019-03-16T22:09:59.340Z,53.33
2019-03-16T22:12:30.711Z,53.47
2019-03-16T22:15:01.947Z,53.41
2019-03-16T22:17:33.265Z,53.42
2019-03-16T22:20:05.774Z,53.49
2019-03-16T22:22:37.358Z,52.92
2019-03-16T22:25:08.854Z,53.36
2019-03-16T22:27:39.931Z,53.31
2019-03-16T22:30:11.492Z,52.92
2019-03-16T22:32:44.049Z,53.11
2019-03-16T22:35:15.210Z,52.95
2019-03-16T22:37:46.754Z,52.89
2019-03-16T22:40:17.799Z,52.91
2019-03-16T22:42:49.149Z,52.91
2019-03-16T22:45:20.205Z,53.33
2019-03-16T22:47:51.204Z,53.22
2019-03-16T22:50:24.730Z,53.27
2019-03-16T22:52:55.803Z,53.41
2019-03-16T22:55:27.004Z,53.83
2019-03-16T22:57:58.086Z,53.88
2019-03-16T23:00:39.095Z,54.02
2019-03-16T23:03:10.926Z,53.76
2019-03-16T23:05:42.553Z,54.29
2019-03-16T23:08:13.706Z,54.25
2019-03-16T23:10:44.753Z,54.28
2019-03-16T23:13:16.518Z,53.92
2019-03-16T23:15:47.738Z,53.80
2019-03-16T23:18:18.963Z,53.90
2019-03-16T23:20:50.230Z,53.90
2019-03-16T23:23:21.682Z,53.22
2019-03-16T23:25:53.222Z,53.33
2019-03-16T23:28:25.304Z,53.20
2019-03-16T23:30:56.736Z,53.41
2019-03-16T23:33:27.823Z,53.17
2019-03-16T23:35:58.806Z,53.25
2019-03-16T23:38:29.809Z,52.86
2019-03-16T23:41:01.098Z,52.47
2019-03-16T23:43:32.693Z,52.29
2019-03-16T23:46:04.916Z,52.60
2019-03-16T23:48:36.804Z,51.84
2019-03-16T23:51:07.842Z,52.30
2019-03-16T23:53:39.143Z,51.72
2019-03-16T23:56:10.158Z,51.79
2019-03-16T23:58:41.642Z,51.79
